sensor_id;sensor_type;location;lat;lon;timestamp;P1;durP1;ratioP1;P2;durP2;ratioP2
58615;SDS011;44385;51.992;4.206;2022-07-09T00:00:54;24.17;;;16.27;;
58615;SDS011;44385;51.992;4.206;2022-07-09T00:03:20;18.58;;;13.73;;
58615;SDS011;44385;51.992;4.206;2022-07-09T00:05:46;15.75;;;11.70;;
58615;SDS011;44385;51.992;4.206;2022-07-09T00:08:13;15.07;;;11.40;;
58615;SDS011;44385;51.992;4.206;2022-07-09T00:10:41;17.90;;;13.07;;
58615;SDS011;44385;51.992;4.206;2022-07-09T00:13:07;16.38;;;11.45;;
58615;SDS011;44385;51.992;4.206;2022-07-09T00:15:33;13.68;;;11.18;;
58615;SDS011;44385;51.992;4.206;2022-07-09T00:18:00;17.08;;;11.43;;
58615;SDS011;44385;51.992;4.206;2022-07-09T00:20:26;10.90;;;8.98;;
58615;SDS011;44385;51.992;4.206;2022-07-09T00:22:52;9.70;;;8.70;;
58615;SDS011;44385;51.992;4.206;2022-07-09T00:25:19;8.95;;;8.07;;
58615;SDS011;44385;51.992;4.206;2022-07-09T00:27:46;14.07;;;9.02;;
58615;SDS011;44385;51.992;4.206;2022-07-09T00:30:13;9.93;;;7.45;;
58615;SDS011;44385;51.992;4.206;2022-07-09T00:32:39;10.13;;;7.82;;
58615;SDS011;44385;51.992;4.206;2022-07-09T00:35:06;12.48;;;7.88;;
58615;SDS011;44385;51.992;4.206;2022-07-09T00:37:32;9.98;;;8.93;;
58615;SDS011;44385;51.992;4.206;2022-07-09T00:39:59;11.93;;;7.95;;
58615;SDS011;44385;51.992;4.206;2022-07-09T00:42:25;9.40;;;8.30;;
58615;SDS011;44385;51.992;4.206;2022-07-09T00:44:53;10.25;;;7.75;;
58615;SDS011;44385;51.992;4.206;2022-07-09T00:47:19;10.93;;;7.47;;
58615;SDS011;44385;51.992;4.206;2022-07-09T00:49:46;8.95;;;7.35;;
58615;SDS011;44385;51.992;4.206;2022-07-09T00:52:13;10.20;;;8.40;;
58615;SDS011;44385;51.992;4.206;2022-07-09T00:54:40;9.68;;;7.43;;
58615;SDS011;44385;51.992;4.206;2022-07-09T00:57:08;9.07;;;6.80;;
58615;SDS011;44385;51.992;4.206;2022-07-09T00:59:34;8.23;;;6.93;;
58615;SDS011;44385;51.992;4.206;2022-07-09T01:02:03;8.50;;;6.45;;
58615;SDS011;44385;51.992;4.206;2022-07-09T01:04:29;10.63;;;7.70;;
58615;SDS011;44385;51.992;4.206;2022-07-09T01:06:56;9.85;;;7.20;;
58615;SDS011;44385;51.992;4.206;2022-07-09T01:09:23;9.35;;;6.47;;
58615;SDS011;44385;51.992;4.206;2022-07-09T01:11:49;10.75;;;6.75;;
58615;SDS011;44385;51.992;4.206;2022-07-09T01:14:15;8.10;;;7.00;;
58615;SDS011;44385;51.992;4.206;2022-07-09T01:16:42;8.70;;;6.60;;
58615;SDS011;44385;51.992;4.206;2022-07-09T01:19:09;9.57;;;7.63;;
58615;SDS011;44385;51.992;4.206;2022-07-09T01:21:37;8.57;;;7.07;;
58615;SDS011;44385;51.992;4.206;2022-07-09T01:24:04;7.43;;;5.72;;
58615;SDS011;44385;51.992;4.206;2022-07-09T01:26:30;12.45;;;7.20;;
58615;SDS011;44385;51.992;4.206;2022-07-09T01:28:57;8.23;;;6.95;;
58615;SDS011;44385;51.992;4.206;2022-07-09T01:31:23;10.00;;;7.07;;
58615;SDS011;44385;51.992;4.206;2022-07-09T01:33:50;13.00;;;6.75;;
58615;SDS011;44385;51.992;4.206;2022-07-09T01:36:16;8.70;;;6.72;;
58615;SDS011;44385;51.992;4.206;2022-07-09T01:38:45;7.53;;;5.95;;
58615;SDS011;44385;51.992;4.206;2022-07-09T01:41:12;7.68;;;5.70;;
58615;SDS011;44385;51.992;4.206;2022-07-09T01:43:38;7.47;;;6.05;;
58615;SDS011;44385;51.992;4.206;2022-07-09T01:46:04;8.98;;;6.88;;
58615;SDS011;44385;51.992;4.206;2022-07-09T01:48:33;10.73;;;6.57;;
58615;SDS011;44385;51.992;4.206;2022-07-09T01:51:00;7.55;;;6.40;;
58615;SDS011;44385;51.992;4.206;2022-07-09T01:53:26;8.65;;;6.03;;
58615;SDS011;44385;51.992;4.206;2022-07-09T01:55:54;10.88;;;6.88;;
58615;SDS011;44385;51.992;4.206;2022-07-09T01:58:21;9.07;;;6.70;;
58615;SDS011;44385;51.992;4.206;2022-07-09T02:00:47;9.25;;;6.28;;
58615;SDS011;44385;51.992;4.206;2022-07-09T02:03:14;8.48;;;6.10;;
58615;SDS011;44385;51.992;4.206;2022-07-09T02:05:40;8.07;;;6.20;;
58615;SDS011;44385;51.992;4.206;2022-07-09T02:08:06;8.32;;;6.82;;
58615;SDS011;44385;51.992;4.206;2022-07-09T02:10:33;8.57;;;6.50;;
58615;SDS011;44385;51.992;4.206;2022-07-09T02:13:00;7.50;;;6.03;;
58615;SDS011;44385;51.992;4.206;2022-07-09T02:15:27;7.43;;;6.25;;
58615;SDS011;44385;51.992;4.206;2022-07-09T02:17:53;6.30;;;5.75;;
58615;SDS011;44385;51.992;4.206;2022-07-09T02:20:19;7.40;;;5.93;;
58615;SDS011;44385;51.992;4.206;2022-07-09T02:22:47;9.93;;;6.30;;
58615;SDS011;44385;51.992;4.206;2022-07-09T02:25:14;9.27;;;7.13;;
58615;SDS011;44385;51.992;4.206;2022-07-09T02:27:40;8.25;;;7.03;;
58615;SDS011;44385;51.992;4.206;2022-07-09T02:30:08;9.75;;;7.25;;
58615;SDS011;44385;51.992;4.206;2022-07-09T02:32:35;7.95;;;6.55;;
58615;SDS011;44385;51.992;4.206;2022-07-09T02:35:03;12.00;;;7.53;;
58615;SDS011;44385;51.992;4.206;2022-07-09T02:37:30;9.38;;;7.05;;
58615;SDS011;44385;51.992;4.206;2022-07-09T02:39:57;8.50;;;6.93;;
58615;SDS011;44385;51.992;4.206;2022-07-09T02:42:23;13.18;;;8.50;;
58615;SDS011;44385;51.992;4.206;2022-07-09T02:44:49;11.10;;;7.20;;
58615;SDS011;44385;51.992;4.206;2022-07-09T02:47:17;11.45;;;7.30;;
58615;SDS011;44385;51.992;4.206;2022-07-09T02:49:44;9.07;;;7.10;;
58615;SDS011;44385;51.992;4.206;2022-07-09T02:52:10;11.32;;;7.45;;
58615;SDS011;44385;51.992;4.206;2022-07-09T02:54:36;7.00;;;6.22;;
58615;SDS011;44385;51.992;4.206;2022-07-09T02:57:03;9.40;;;6.80;;
58615;SDS011;44385;51.992;4.206;2022-07-09T02:59:29;7.93;;;7.10;;
58615;SDS011;44385;51.992;4.206;2022-07-09T03:01:56;8.35;;;7.03;;
58615;SDS011;44385;51.992;4.206;2022-07-09T03:04:24;10.98;;;6.93;;
58615;SDS011;44385;51.992;4.206;2022-07-09T03:06:50;8.25;;;6.90;;
58615;SDS011;44385;51.992;4.206;2022-07-09T03:09:16;9.77;;;7.32;;
58615;SDS011;44385;51.992;4.206;2022-07-09T03:11:43;8.75;;;7.00;;
58615;SDS011;44385;51.992;4.206;2022-07-09T03:14:09;8.98;;;6.25;;
58615;SDS011;44385;51.992;4.206;2022-07-09T03:16:36;8.52;;;6.30;;
58615;SDS011;44385;51.992;4.206;2022-07-09T03:19:03;8.73;;;7.13;;
58615;SDS011;44385;51.992;4.206;2022-07-09T03:21:31;10.50;;;6.80;;
58615;SDS011;44385;51.992;4.206;2022-07-09T03:23:57;8.85;;;6.82;;
58615;SDS011;44385;51.992;4.206;2022-07-09T03:26:24;8.63;;;7.65;;
58615;SDS011;44385;51.992;4.206;2022-07-09T03:28:50;7.32;;;6.28;;
58615;SDS011;44385;51.992;4.206;2022-07-09T03:31:16;11.00;;;6.38;;
58615;SDS011;44385;51.992;4.206;2022-07-09T03:33:43;6.85;;;6.20;;
58615;SDS011;44385;51.992;4.206;2022-07-09T03:36:09;7.63;;;6.00;;
58615;SDS011;44385;51.992;4.206;2022-07-09T03:38:37;10.05;;;8.30;;
58615;SDS011;44385;51.992;4.206;2022-07-09T03:41:04;13.00;;;7.82;;
58615;SDS011;44385;51.992;4.206;2022-07-09T03:43:30;8.00;;;7.20;;
58615;SDS011;44385;51.992;4.206;2022-07-09T03:45:57;11.63;;;8.00;;
58615;SDS011;44385;51.992;4.206;2022-07-09T03:48:23;12.45;;;7.53;;
58615;SDS011;44385;51.992;4.206;2022-07-09T03:50:50;10.73;;;8.48;;
58615;SDS011;44385;51.992;4.206;2022-07-09T03:53:16;10.38;;;7.90;;
58615;SDS011;44385;51.992;4.206;2022-07-09T03:55:44;12.38;;;8.70;;
58615;SDS011;44385;51.992;4.206;2022-07-09T03:58:11;9.75;;;7.88;;
58615;SDS011;44385;51.992;4.206;2022-07-09T04:00:37;18.80;;;8.73;;
58615;SDS011;44385;51.992;4.206;2022-07-09T04:03:03;13.40;;;8.68;;
58615;SDS011;44385;51.992;4.206;2022-07-09T04:05:30;10.98;;;8.23;;
58615;SDS011;44385;51.992;4.206;2022-07-09T04:07:56;11.38;;;8.35;;
58615;SDS011;44385;51.992;4.206;2022-07-09T04:10:23;10.00;;;7.53;;
58615;SDS011;44385;51.992;4.206;2022-07-09T04:12:50;9.70;;;7.53;;
58615;SDS011;44385;51.992;4.206;2022-07-09T04:15:17;9.02;;;7.07;;
58615;SDS011;44385;51.992;4.206;2022-07-09T04:17:43;11.85;;;8.27;;
58615;SDS011;44385;51.992;4.206;2022-07-09T04:20:10;7.80;;;6.82;;
58615;SDS011;44385;51.992;4.206;2022-07-09T04:22:36;8.45;;;7.13;;
58615;SDS011;44385;51.992;4.206;2022-07-09T04:25:03;8.27;;;7.07;;
58615;SDS011;44385;51.992;4.206;2022-07-09T04:27:29;12.75;;;8.95;;
58615;SDS011;44385;51.992;4.206;2022-07-09T04:29:57;11.45;;;9.73;;
58615;SDS011;44385;51.992;4.206;2022-07-09T04:32:24;12.00;;;9.70;;
58615;SDS011;44385;51.992;4.206;2022-07-09T04:34:50;9.85;;;8.77;;
58615;SDS011;44385;51.992;4.206;2022-07-09T04:37:16;15.27;;;13.25;;
58615;SDS011;44385;51.992;4.206;2022-07-09T04:39:43;15.43;;;12.88;;
58615;SDS011;44385;51.992;4.206;2022-07-09T04:42:09;16.35;;;13.50;;
58615;SDS011;44385;51.992;4.206;2022-07-09T04:44:38;14.18;;;12.90;;
58615;SDS011;44385;51.992;4.206;2022-07-09T04:47:05;15.73;;;13.15;;
58615;SDS011;44385;51.992;4.206;2022-07-09T04:49:32;23.23;;;14.77;;
58615;SDS011;44385;51.992;4.206;2022-07-09T04:51:58;17.30;;;14.23;;
58615;SDS011;44385;51.992;4.206;2022-07-09T04:54:24;16.70;;;15.02;;
58615;SDS011;44385;51.992;4.206;2022-07-09T04:56:51;18.70;;;16.65;;
58615;SDS011;44385;51.992;4.206;2022-07-09T04:59:17;20.85;;;16.50;;
58615;SDS011;44385;51.992;4.206;2022-07-09T05:01:44;18.23;;;16.38;;
58615;SDS011;44385;51.992;4.206;2022-07-09T05:04:11;24.88;;;16.60;;
58615;SDS011;44385;51.992;4.206;2022-07-09T05:06:38;21.20;;;17.23;;
58615;SDS011;44385;51.992;4.206;2022-07-09T05:09:05;20.10;;;16.98;;
58615;SDS011;44385;51.992;4.206;2022-07-09T05:11:31;20.92;;;15.43;;
58615;SDS011;44385;51.992;4.206;2022-07-09T05:13:58;16.45;;;14.70;;
58615;SDS011;44385;51.992;4.206;2022-07-09T05:16:25;22.83;;;14.98;;
58615;SDS011;44385;51.992;4.206;2022-07-09T05:18:51;15.90;;;14.30;;
58615;SDS011;44385;51.992;4.206;2022-07-09T05:21:19;17.67;;;14.60;;
58615;SDS011;44385;51.992;4.206;2022-07-09T05:23:45;19.23;;;13.70;;
58615;SDS011;44385;51.992;4.206;2022-07-09T05:26:12;16.13;;;13.93;;
58615;SDS011;44385;51.992;4.206;2022-07-09T05:28:38;14.93;;;12.75;;
58615;SDS011;44385;51.992;4.206;2022-07-09T05:31:05;14.52;;;13.05;;
58615;SDS011;44385;51.992;4.206;2022-07-09T05:33:31;18.75;;;13.35;;
58615;SDS011;44385;51.992;4.206;2022-07-09T05:35:57;17.35;;;13.35;;
58615;SDS011;44385;51.992;4.206;2022-07-09T05:38:25;15.65;;;11.60;;
58615;SDS011;44385;51.992;4.206;2022-07-09T05:40:52;16.42;;;13.18;;
58615;SDS011;44385;51.992;4.206;2022-07-09T05:43:18;14.43;;;11.20;;
58615;SDS011;44385;51.992;4.206;2022-07-09T05:45:44;9.65;;;8.65;;
58615;SDS011;44385;51.992;4.206;2022-07-09T05:48:11;13.30;;;8.85;;
58615;SDS011;44385;51.992;4.206;2022-07-09T05:50:37;12.75;;;6.47;;
58615;SDS011;44385;51.992;4.206;2022-07-09T05:53:03;9.55;;;5.18;;
58615;SDS011;44385;51.992;4.206;2022-07-09T05:55:31;6.10;;;4.07;;
58615;SDS011;44385;51.992;4.206;2022-07-09T05:57:58;5.07;;;3.90;;
58615;SDS011;44385;51.992;4.206;2022-07-09T06:00:24;4.47;;;3.17;;
58615;SDS011;44385;51.992;4.206;2022-07-09T06:02:51;5.30;;;3.30;;
58615;SDS011;44385;51.992;4.206;2022-07-09T06:05:17;3.67;;;3.20;;
58615;SDS011;44385;51.992;4.206;2022-07-09T06:07:45;2.95;;;2.20;;
58615;SDS011;44385;51.992;4.206;2022-07-09T06:10:11;4.10;;;2.40;;
58615;SDS011;44385;51.992;4.206;2022-07-09T06:12:40;3.03;;;2.72;;
58615;SDS011;44385;51.992;4.206;2022-07-09T06:15:07;8.17;;;2.43;;
58615;SDS011;44385;51.992;4.206;2022-07-09T06:17:34;2.13;;;1.85;;
58615;SDS011;44385;51.992;4.206;2022-07-09T06:20:01;4.53;;;1.90;;
58615;SDS011;44385;51.992;4.206;2022-07-09T06:22:28;6.82;;;2.00;;
58615;SDS011;44385;51.992;4.206;2022-07-09T06:24:54;2.15;;;1.95;;
58615;SDS011;44385;51.992;4.206;2022-07-09T06:27:20;5.95;;;1.75;;
58615;SDS011;44385;51.992;4.206;2022-07-09T06:29:48;2.03;;;1.60;;
58615;SDS011;44385;51.992;4.206;2022-07-09T06:32:14;2.13;;;1.50;;
58615;SDS011;44385;51.992;4.206;2022-07-09T06:34:41;3.75;;;1.85;;
58615;SDS011;44385;51.992;4.206;2022-07-09T06:37:07;5.10;;;1.80;;
58615;SDS011;44385;51.992;4.206;2022-07-09T06:39:33;4.15;;;1.75;;
58615;SDS011;44385;51.992;4.206;2022-07-09T06:42:14;3.17;;;1.85;;
58615;SDS011;44385;51.992;4.206;2022-07-09T06:44:41;2.72;;;1.85;;
58615;SDS011;44385;51.992;4.206;2022-07-09T06:47:09;2.97;;;1.60;;
58615;SDS011;44385;51.992;4.206;2022-07-09T06:49:36;4.75;;;1.92;;
58615;SDS011;44385;51.992;4.206;2022-07-09T06:52:03;3.47;;;1.73;;
58615;SDS011;44385;51.992;4.206;2022-07-09T06:54:29;2.35;;;1.30;;
58615;SDS011;44385;51.992;4.206;2022-07-09T06:56:56;6.68;;;1.70;;
58615;SDS011;44385;51.992;4.206;2022-07-09T06:59:22;5.90;;;1.70;;
58615;SDS011;44385;51.992;4.206;2022-07-09T07:01:49;3.60;;;1.50;;
58615;SDS011;44385;51.992;4.206;2022-07-09T07:04:17;4.78;;;1.27;;
58615;SDS011;44385;51.992;4.206;2022-07-09T07:06:45;2.33;;;1.23;;
58615;SDS011;44385;51.992;4.206;2022-07-09T07:09:11;2.58;;;1.30;;
58615;SDS011;44385;51.992;4.206;2022-07-09T07:11:38;2.70;;;1.20;;
58615;SDS011;44385;51.992;4.206;2022-07-09T07:14:04;2.25;;;1.48;;
58615;SDS011;44385;51.992;4.206;2022-07-09T07:16:31;2.45;;;1.10;;
58615;SDS011;44385;51.992;4.206;2022-07-09T07:18:57;4.03;;;1.63;;
58615;SDS011;44385;51.992;4.206;2022-07-09T07:21:25;4.88;;;1.55;;
58615;SDS011;44385;51.992;4.206;2022-07-09T07:23:51;3.15;;;1.30;;
58615;SDS011;44385;51.992;4.206;2022-07-09T07:26:18;3.25;;;1.48;;
58615;SDS011;44385;51.992;4.206;2022-07-09T07:28:44;4.07;;;1.40;;
58615;SDS011;44385;51.992;4.206;2022-07-09T07:31:10;4.65;;;1.80;;
58615;SDS011;44385;51.992;4.206;2022-07-09T07:33:37;1.88;;;1.23;;
58615;SDS011;44385;51.992;4.206;2022-07-09T07:36:04;3.60;;;1.35;;
58615;SDS011;44385;51.992;4.206;2022-07-09T07:38:32;4.47;;;1.35;;
58615;SDS011;44385;51.992;4.206;2022-07-09T07:40:59;2.25;;;1.40;;
58615;SDS011;44385;51.992;4.206;2022-07-09T07:43:25;3.30;;;1.30;;
58615;SDS011;44385;51.992;4.206;2022-07-09T07:45:52;2.05;;;1.38;;
58615;SDS011;44385;51.992;4.206;2022-07-09T07:48:18;2.88;;;1.40;;
58615;SDS011;44385;51.992;4.206;2022-07-09T07:50:44;4.10;;;1.20;;
58615;SDS011;44385;51.992;4.206;2022-07-09T07:53:11;1.63;;;1.10;;
58615;SDS011;44385;51.992;4.206;2022-07-09T07:55:38;3.97;;;1.38;;
58615;SDS011;44385;51.992;4.206;2022-07-09T07:58:05;4.22;;;1.40;;
58615;SDS011;44385;51.992;4.206;2022-07-09T08:00:31;1.55;;;1.40;;
58615;SDS011;44385;51.992;4.206;2022-07-09T08:02:58;3.10;;;1.20;;
58615;SDS011;44385;51.992;4.206;2022-07-09T08:05:24;4.75;;;1.25;;
58615;SDS011;44385;51.992;4.206;2022-07-09T08:07:50;7.40;;;1.60;;
58615;SDS011;44385;51.992;4.206;2022-07-09T08:10:17;4.50;;;1.30;;
58615;SDS011;44385;51.992;4.206;2022-07-09T08:12:45;2.53;;;1.17;;
58615;SDS011;44385;51.992;4.206;2022-07-09T08:15:11;2.35;;;1.20;;
58615;SDS011;44385;51.992;4.206;2022-07-09T08:17:37;3.10;;;1.50;;
58615;SDS011;44385;51.992;4.206;2022-07-09T08:20:04;5.68;;;1.63;;
58615;SDS011;44385;51.992;4.206;2022-07-09T08:22:31;4.18;;;1.50;;
58615;SDS011;44385;51.992;4.206;2022-07-09T08:24:58;6.70;;;1.63;;
58615;SDS011;44385;51.992;4.206;2022-07-09T08:27:24;4.00;;;2.00;;
58615;SDS011;44385;51.992;4.206;2022-07-09T08:29:51;4.28;;;1.58;;
58615;SDS011;44385;51.992;4.206;2022-07-09T08:32:18;3.10;;;1.33;;
58615;SDS011;44385;51.992;4.206;2022-07-09T08:34:44;5.43;;;1.50;;
58615;SDS011;44385;51.992;4.206;2022-07-09T08:37:11;5.10;;;1.60;;
58615;SDS011;44385;51.992;4.206;2022-07-09T08:39:37;2.63;;;1.52;;
58615;SDS011;44385;51.992;4.206;2022-07-09T08:42:04;2.28;;;1.50;;
58615;SDS011;44385;51.992;4.206;2022-07-09T08:44:34;2.92;;;1.25;;
58615;SDS011;44385;51.992;4.206;2022-07-09T08:47:05;4.07;;;1.75;;
58615;SDS011;44385;51.992;4.206;2022-07-09T08:49:31;6.07;;;1.50;;
58615;SDS011;44385;51.992;4.206;2022-07-09T08:51:58;3.70;;;1.50;;
58615;SDS011;44385;51.992;4.206;2022-07-09T08:54:25;5.63;;;1.40;;
58615;SDS011;44385;51.992;4.206;2022-07-09T08:56:51;4.82;;;1.48;;
58615;SDS011;44385;51.992;4.206;2022-07-09T08:59:18;2.90;;;1.45;;
58615;SDS011;44385;51.992;4.206;2022-07-09T09:01:44;4.43;;;1.38;;
58615;SDS011;44385;51.992;4.206;2022-07-09T09:04:11;3.22;;;1.30;;
58615;SDS011;44385;51.992;4.206;2022-07-09T09:06:39;2.80;;;1.42;;
58615;SDS011;44385;51.992;4.206;2022-07-09T09:09:07;4.38;;;1.17;;
58615;SDS011;44385;51.992;4.206;2022-07-09T09:11:33;3.42;;;1.23;;
58615;SDS011;44385;51.992;4.206;2022-07-09T09:14:01;8.43;;;1.65;;
58615;SDS011;44385;51.992;4.206;2022-07-09T09:16:28;3.55;;;1.40;;
58615;SDS011;44385;51.992;4.206;2022-07-09T09:18:55;1.95;;;0.98;;
58615;SDS011;44385;51.992;4.206;2022-07-09T09:21:23;4.68;;;1.30;;
58615;SDS011;44385;51.992;4.206;2022-07-09T09:23:50;4.00;;;1.10;;
58615;SDS011;44385;51.992;4.206;2022-07-09T09:26:18;2.63;;;1.42;;
58615;SDS011;44385;51.992;4.206;2022-07-09T09:28:45;3.90;;;1.33;;
58615;SDS011;44385;51.992;4.206;2022-07-09T09:31:22;2.72;;;1.10;;
58615;SDS011;44385;51.992;4.206;2022-07-09T09:33:48;4.90;;;1.45;;
58615;SDS011;44385;51.992;4.206;2022-07-09T09:36:29;4.68;;;1.33;;
58615;SDS011;44385;51.992;4.206;2022-07-09T09:41:38;3.28;;;0.90;;
58615;SDS011;44385;51.992;4.206;2022-07-09T09:44:05;2.90;;;1.08;;
58615;SDS011;44385;51.992;4.206;2022-07-09T09:46:34;2.15;;;1.10;;
58615;SDS011;44385;51.992;4.206;2022-07-09T09:49:01;2.80;;;1.10;;
58615;SDS011;44385;51.992;4.206;2022-07-09T09:51:32;2.65;;;1.30;;
58615;SDS011;44385;51.992;4.206;2022-07-09T09:53:59;2.55;;;1.40;;
58615;SDS011;44385;51.992;4.206;2022-07-09T09:56:26;2.53;;;1.30;;
58615;SDS011;44385;51.992;4.206;2022-07-09T09:58:54;5.40;;;1.20;;
58615;SDS011;44385;51.992;4.206;2022-07-09T10:01:21;2.22;;;1.08;;
58615;SDS011;44385;51.992;4.206;2022-07-09T10:03:48;1.75;;;1.10;;
58615;SDS011;44385;51.992;4.206;2022-07-09T10:06:15;43.67;;;3.97;;
58615;SDS011;44385;51.992;4.206;2022-07-09T10:08:43;9.90;;;1.30;;
58615;SDS011;44385;51.992;4.206;2022-07-09T10:11:09;2.65;;;1.58;;
58615;SDS011;44385;51.992;4.206;2022-07-09T10:13:37;2.60;;;1.23;;
58615;SDS011;44385;51.992;4.206;2022-07-09T10:16:04;5.70;;;1.20;;
58615;SDS011;44385;51.992;4.206;2022-07-09T10:18:30;4.15;;;1.67;;
58615;SDS011;44385;51.992;4.206;2022-07-09T10:20:57;5.25;;;1.30;;
58615;SDS011;44385;51.992;4.206;2022-07-09T10:23:23;5.30;;;1.27;;
58615;SDS011;44385;51.992;4.206;2022-07-09T10:25:52;2.10;;;1.00;;
58615;SDS011;44385;51.992;4.206;2022-07-09T10:28:21;2.47;;;1.27;;
58615;SDS011;44385;51.992;4.206;2022-07-09T10:30:50;5.18;;;1.42;;
58615;SDS011;44385;51.992;4.206;2022-07-09T10:33:21;3.53;;;1.77;;
58615;SDS011;44385;51.992;4.206;2022-07-09T10:35:47;5.38;;;1.40;;
58615;SDS011;44385;51.992;4.206;2022-07-09T10:38:15;4.32;;;1.42;;
58615;SDS011;44385;51.992;4.206;2022-07-09T10:40:42;4.85;;;1.70;;
58615;SDS011;44385;51.992;4.206;2022-07-09T10:43:10;6.13;;;1.95;;
58615;SDS011;44385;51.992;4.206;2022-07-09T10:45:37;7.90;;;2.37;;
58615;SDS011;44385;51.992;4.206;2022-07-09T10:48:05;4.28;;;1.70;;
58615;SDS011;44385;51.992;4.206;2022-07-09T10:50:32;5.40;;;1.95;;
58615;SDS011;44385;51.992;4.206;2022-07-09T10:52:59;5.43;;;1.40;;
58615;SDS011;44385;51.992;4.206;2022-07-09T10:55:27;6.18;;;1.63;;
58615;SDS011;44385;51.992;4.206;2022-07-09T10:57:54;4.38;;;2.50;;
58615;SDS011;44385;51.992;4.206;2022-07-09T11:00:22;6.72;;;1.60;;
58615;SDS011;44385;51.992;4.206;2022-07-09T11:02:52;4.35;;;1.90;;
58615;SDS011;44385;51.992;4.206;2022-07-09T11:05:19;6.18;;;1.60;;
58615;SDS011;44385;51.992;4.206;2022-07-09T11:07:53;3.03;;;1.33;;
58615;SDS011;44385;51.992;4.206;2022-07-09T11:10:19;6.15;;;2.50;;
58615;SDS011;44385;51.992;4.206;2022-07-09T11:12:47;9.25;;;2.05;;
58615;SDS011;44385;51.992;4.206;2022-07-09T11:15:16;2.83;;;1.63;;
58615;SDS011;44385;51.992;4.206;2022-07-09T11:17:44;5.65;;;1.33;;
58615;SDS011;44385;51.992;4.206;2022-07-09T11:20:11;4.95;;;2.03;;
58615;SDS011;44385;51.992;4.206;2022-07-09T11:22:37;3.92;;;1.42;;
58615;SDS011;44385;51.992;4.206;2022-07-09T11:25:04;5.97;;;1.73;;
58615;SDS011;44385;51.992;4.206;2022-07-09T11:27:31;7.82;;;1.92;;
58615;SDS011;44385;51.992;4.206;2022-07-09T11:30:01;7.07;;;2.03;;
58615;SDS011;44385;51.992;4.206;2022-07-09T11:32:29;6.95;;;1.95;;
58615;SDS011;44385;51.992;4.206;2022-07-09T11:34:56;5.38;;;1.73;;
58615;SDS011;44385;51.992;4.206;2022-07-09T11:37:23;7.28;;;1.90;;
58615;SDS011;44385;51.992;4.206;2022-07-09T11:39:51;2.78;;;1.55;;
58615;SDS011;44385;51.992;4.206;2022-07-09T11:42:20;14.80;;;2.60;;
58615;SDS011;44385;51.992;4.206;2022-07-09T11:44:52;6.95;;;2.17;;
58615;SDS011;44385;51.992;4.206;2022-07-09T11:47:20;8.63;;;2.38;;
58615;SDS011;44385;51.992;4.206;2022-07-09T11:50:05;6.20;;;2.10;;
58615;SDS011;44385;51.992;4.206;2022-07-09T11:52:31;8.00;;;2.70;;
58615;SDS011;44385;51.992;4.206;2022-07-09T11:54:58;6.20;;;2.05;;
58615;SDS011;44385;51.992;4.206;2022-07-09T11:57:25;7.18;;;2.42;;
58615;SDS011;44385;51.992;4.206;2022-07-09T11:59:52;9.70;;;2.83;;
58615;SDS011;44385;51.992;4.206;2022-07-09T12:02:22;7.50;;;2.45;;
58615;SDS011;44385;51.992;4.206;2022-07-09T12:04:48;8.48;;;2.60;;
58615;SDS011;44385;51.992;4.206;2022-07-09T12:07:16;6.40;;;2.20;;
58615;SDS011;44385;51.992;4.206;2022-07-09T12:09:42;5.97;;;2.20;;
58615;SDS011;44385;51.992;4.206;2022-07-09T12:12:09;9.68;;;2.75;;
58615;SDS011;44385;51.992;4.206;2022-07-09T12:14:36;8.30;;;3.03;;
58615;SDS011;44385;51.992;4.206;2022-07-09T12:17:02;9.07;;;2.80;;
58615;SDS011;44385;51.992;4.206;2022-07-09T12:19:29;13.07;;;2.85;;
58615;SDS011;44385;51.992;4.206;2022-07-09T12:21:55;9.75;;;2.17;;
58615;SDS011;44385;51.992;4.206;2022-07-09T12:24:23;9.32;;;2.58;;
58615;SDS011;44385;51.992;4.206;2022-07-09T12:26:49;7.78;;;2.40;;
58615;SDS011;44385;51.992;4.206;2022-07-09T12:29:16;8.95;;;2.28;;
58615;SDS011;44385;51.992;4.206;2022-07-09T12:31:42;13.95;;;3.90;;
58615;SDS011;44385;51.992;4.206;2022-07-09T12:34:09;7.03;;;2.40;;
58615;SDS011;44385;51.992;4.206;2022-07-09T12:36:35;7.50;;;2.75;;
58615;SDS011;44385;51.992;4.206;2022-07-09T12:39:03;9.65;;;2.67;;
58615;SDS011;44385;51.992;4.206;2022-07-09T12:41:31;10.60;;;3.17;;
58615;SDS011;44385;51.992;4.206;2022-07-09T12:43:57;12.23;;;3.10;;
58615;SDS011;44385;51.992;4.206;2022-07-09T12:46:25;12.23;;;3.08;;
58615;SDS011;44385;51.992;4.206;2022-07-09T12:48:51;10.80;;;2.70;;
58615;SDS011;44385;51.992;4.206;2022-07-09T12:51:18;9.15;;;3.05;;
58615;SDS011;44385;51.992;4.206;2022-07-09T12:53:44;6.60;;;2.53;;
58615;SDS011;44385;51.992;4.206;2022-07-09T12:56:11;6.70;;;2.65;;
58615;SDS011;44385;51.992;4.206;2022-07-09T12:58:38;8.65;;;2.63;;
58615;SDS011;44385;51.992;4.206;2022-07-09T13:01:05;10.45;;;2.78;;
58615;SDS011;44385;51.992;4.206;2022-07-09T13:03:31;9.80;;;3.05;;
58615;SDS011;44385;51.992;4.206;2022-07-09T13:05:58;7.05;;;2.38;;
58615;SDS011;44385;51.992;4.206;2022-07-09T13:08:24;9.07;;;2.50;;
58615;SDS011;44385;51.992;4.206;2022-07-09T13:10:50;9.32;;;2.70;;
58615;SDS011;44385;51.992;4.206;2022-07-09T13:13:17;8.70;;;2.40;;
58615;SDS011;44385;51.992;4.206;2022-07-09T13:15:45;9.13;;;2.40;;
58615;SDS011;44385;51.992;4.206;2022-07-09T13:18:12;6.18;;;2.70;;
58615;SDS011;44385;51.992;4.206;2022-07-09T13:20:40;9.05;;;2.50;;
58615;SDS011;44385;51.992;4.206;2022-07-09T13:23:06;11.35;;;3.00;;
58615;SDS011;44385;51.992;4.206;2022-07-09T13:25:33;10.43;;;2.63;;
58615;SDS011;44385;51.992;4.206;2022-07-09T13:27:59;9.10;;;2.60;;
58615;SDS011;44385;51.992;4.206;2022-07-09T13:30:26;9.60;;;2.65;;
58615;SDS011;44385;51.992;4.206;2022-07-09T13:32:53;9.40;;;2.42;;
58615;SDS011;44385;51.992;4.206;2022-07-09T13:35:20;5.82;;;3.15;;
58615;SDS011;44385;51.992;4.206;2022-07-09T13:37:46;5.93;;;2.08;;
58615;SDS011;44385;51.992;4.206;2022-07-09T13:40:12;7.50;;;2.15;;
58615;SDS011;44385;51.992;4.206;2022-07-09T13:42:39;7.65;;;2.88;;
58615;SDS011;44385;51.992;4.206;2022-07-09T13:45:05;5.15;;;1.88;;
58615;SDS011;44385;51.992;4.206;2022-07-09T13:47:32;7.88;;;2.33;;
58615;SDS011;44385;51.992;4.206;2022-07-09T13:50:00;4.65;;;2.10;;
58615;SDS011;44385;51.992;4.206;2022-07-09T13:52:26;8.70;;;2.05;;
58615;SDS011;44385;51.992;4.206;2022-07-09T13:54:52;9.65;;;2.92;;
58615;SDS011;44385;51.992;4.206;2022-07-09T13:57:19;5.38;;;1.58;;
58615;SDS011;44385;51.992;4.206;2022-07-09T13:59:45;6.05;;;2.05;;
58615;SDS011;44385;51.992;4.206;2022-07-09T14:02:12;5.18;;;1.80;;
58615;SDS011;44385;51.992;4.206;2022-07-09T14:04:38;4.85;;;2.00;;
58615;SDS011;44385;51.992;4.206;2022-07-09T14:07:06;6.57;;;2.25;;
58615;SDS011;44385;51.992;4.206;2022-07-09T14:09:32;14.07;;;3.22;;
58615;SDS011;44385;51.992;4.206;2022-07-09T14:11:59;11.02;;;2.45;;
58615;SDS011;44385;51.992;4.206;2022-07-09T14:14:25;17.13;;;3.45;;
58615;SDS011;44385;51.992;4.206;2022-07-09T14:16:52;8.57;;;2.00;;
58615;SDS011;44385;51.992;4.206;2022-07-09T14:19:18;9.95;;;2.30;;
58615;SDS011;44385;51.992;4.206;2022-07-09T14:21:44;6.80;;;2.38;;
58615;SDS011;44385;51.992;4.206;2022-07-09T14:24:12;8.18;;;2.22;;
58615;SDS011;44385;51.992;4.206;2022-07-09T14:26:38;4.00;;;2.10;;
58615;SDS011;44385;51.992;4.206;2022-07-09T14:29:06;5.27;;;2.07;;
58615;SDS011;44385;51.992;4.206;2022-07-09T14:31:33;5.22;;;1.50;;
58615;SDS011;44385;51.992;4.206;2022-07-09T14:33:59;5.25;;;1.80;;
58615;SDS011;44385;51.992;4.206;2022-07-09T14:36:25;8.55;;;2.00;;
58615;SDS011;44385;51.992;4.206;2022-07-09T14:38:52;3.70;;;1.85;;
58615;SDS011;44385;51.992;4.206;2022-07-09T14:41:19;4.53;;;1.45;;
58615;SDS011;44385;51.992;4.206;2022-07-09T14:43:46;5.18;;;1.70;;